sensor_id;sensor_type;location;lat;lon;timestamp;temperature;humidity
70456;DHT22;57916;51.996;5.180;2023-05-10T00:00:21;18.00;73.40
70456;DHT22;57916;51.996;5.180;2023-05-10T00:02:50;18.00;73.40
70456;DHT22;57916;51.996;5.180;2023-05-10T00:05:17;18.00;73.30
70456;DHT22;57916;51.996;5.180;2023-05-10T00:07:44;18.00;73.40
70456;DHT22;57916;51.996;5.180;2023-05-10T00:10:12;18.00;73.50
70456;DHT22;57916;51.996;5.180;2023-05-10T00:12:39;17.90;73.50
70456;DHT22;57916;51.996;5.180;2023-05-10T00:15:06;17.90;73.80
70456;DHT22;57916;51.996;5.180;2023-05-10T00:17:34;17.90;74.10
70456;DHT22;57916;51.996;5.180;2023-05-10T00:20:01;17.90;74.20
70456;DHT22;57916;51.996;5.180;2023-05-10T00:22:28;17.90;74.30
70456;DHT22;57916;51.996;5.180;2023-05-10T00:24:55;17.90;74.40
70456;DHT22;57916;51.996;5.180;2023-05-10T00:27:22;17.90;74.50
70456;DHT22;57916;51.996;5.180;2023-05-10T00:29:49;17.90;74.50
70456;DHT22;57916;51.996;5.180;2023-05-10T00:32:16;17.90;74.50
70456;DHT22;57916;51.996;5.180;2023-05-10T00:34:43;17.90;75.40
70456;DHT22;57916;51.996;5.180;2023-05-10T00:37:11;17.90;74.50
70456;DHT22;57916;51.996;5.180;2023-05-10T00:39:38;18.00;74.50
70456;DHT22;57916;51.996;5.180;2023-05-10T00:42:04;18.00;74.30
70456;DHT22;57916;51.996;5.180;2023-05-10T00:44:32;17.90;74.20
70456;DHT22;57916;51.996;5.180;2023-05-10T00:46:59;17.90;74.00
70456;DHT22;57916;51.996;5.180;2023-05-10T00:49:26;17.90;73.90
70456;DHT22;57916;51.996;5.180;2023-05-10T00:51:53;17.90;73.50
70456;DHT22;57916;51.996;5.180;2023-05-10T00:54:20;17.80;73.20
70456;DHT22;57916;51.996;5.180;2023-05-10T00:56:47;17.80;73.20
70456;DHT22;57916;51.996;5.180;2023-05-10T00:59:16;17.80;73.00
70456;DHT22;57916;51.996;5.180;2023-05-10T01:01:47;17.80;73.20
70456;DHT22;57916;51.996;5.180;2023-05-10T01:04:15;17.80;73.30
70456;DHT22;57916;51.996;5.180;2023-05-10T01:06:43;17.80;73.80
70456;DHT22;57916;51.996;5.180;2023-05-10T01:09:10;17.70;74.20
70456;DHT22;57916;51.996;5.180;2023-05-10T01:11:39;17.70;74.50
70456;DHT22;57916;51.996;5.180;2023-05-10T01:14:06;17.70;74.50
70456;DHT22;57916;51.996;5.180;2023-05-10T01:16:38;17.70;74.50
70456;DHT22;57916;51.996;5.180;2023-05-10T01:19:12;17.70;74.50
70456;DHT22;57916;51.996;5.180;2023-05-10T01:27:38;17.70;74.70
70456;DHT22;57916;51.996;5.180;2023-05-10T01:35:42;17.60;74.70
70456;DHT22;57916;51.996;5.180;2023-05-10T01:38:27;17.70;74.80
70456;DHT22;57916;51.996;5.180;2023-05-10T01:41:16;17.70;74.70
70456;DHT22;57916;51.996;5.180;2023-05-10T01:44:08;17.70;74.50
70456;DHT22;57916;51.996;5.180;2023-05-10T01:46:37;17.60;74.20
70456;DHT22;57916;51.996;5.180;2023-05-10T01:49:11;17.60;74.30
70456;DHT22;57916;51.996;5.180;2023-05-10T01:51:51;17.60;74.40
70456;DHT22;57916;51.996;5.180;2023-05-10T01:54:20;17.60;74.40
70456;DHT22;57916;51.996;5.180;2023-05-10T01:56:52;17.60;74.20
70456;DHT22;57916;51.996;5.180;2023-05-10T01:59:22;17.50;74.20
70456;DHT22;57916;51.996;5.180;2023-05-10T02:01:53;17.50;74.40
70456;DHT22;57916;51.996;5.180;2023-05-10T02:04:22;17.50;74.40
70456;DHT22;57916;51.996;5.180;2023-05-10T02:06:51;17.60;74.60
70456;DHT22;57916;51.996;5.180;2023-05-10T02:09:20;17.50;74.30
70456;DHT22;57916;51.996;5.180;2023-05-10T02:11:50;17.50;74.40
70456;DHT22;57916;51.996;5.180;2023-05-10T02:14:18;17.50;74.50
70456;DHT22;57916;51.996;5.180;2023-05-10T02:16:46;17.50;74.40
70456;DHT22;57916;51.996;5.180;2023-05-10T02:19:15;17.50;74.40
70456;DHT22;57916;51.996;5.180;2023-05-10T02:21:44;17.50;74.50
70456;DHT22;57916;51.996;5.180;2023-05-10T02:24:12;17.50;74.60
70456;DHT22;57916;51.996;5.180;2023-05-10T02:26:42;17.40;74.60
70456;DHT22;57916;51.996;5.180;2023-05-10T02:29:11;17.40;74.60
70456;DHT22;57916;51.996;5.180;2023-05-10T02:31:39;17.40;74.70
70456;DHT22;57916;51.996;5.180;2023-05-10T02:34:07;17.40;74.80
70456;DHT22;57916;51.996;5.180;2023-05-10T02:36:35;17.40;74.90
70456;DHT22;57916;51.996;5.180;2023-05-10T02:39:04;17.50;74.90
70456;DHT22;57916;51.996;5.180;2023-05-10T02:41:37;17.40;74.80
70456;DHT22;57916;51.996;5.180;2023-05-10T02:44:06;17.40;74.80
70456;DHT22;57916;51.996;5.180;2023-05-10T02:46:34;17.40;74.80
70456;DHT22;57916;51.996;5.180;2023-05-10T02:49:02;17.40;74.90
70456;DHT22;57916;51.996;5.180;2023-05-10T02:51:32;17.40;75.00
70456;DHT22;57916;51.996;5.180;2023-05-10T02:54:33;17.40;75.00
70456;DHT22;57916;51.996;5.180;2023-05-10T02:57:03;17.40;75.00
70456;DHT22;57916;51.996;5.180;2023-05-10T02:59:31;17.30;75.10
70456;DHT22;57916;51.996;5.180;2023-05-10T03:01:59;17.40;75.20
70456;DHT22;57916;51.996;5.180;2023-05-10T03:04:27;17.40;75.20
70456;DHT22;57916;51.996;5.180;2023-05-10T03:06:56;17.40;75.20
70456;DHT22;57916;51.996;5.180;2023-05-10T03:09:23;17.40;75.20
70456;DHT22;57916;51.996;5.180;2023-05-10T03:17:06;17.40;75.00
70456;DHT22;57916;51.996;5.180;2023-05-10T03:19:56;17.40;75.10
70456;DHT22;57916;51.996;5.180;2023-05-10T03:22:36;17.40;75.40
70456;DHT22;57916;51.996;5.180;2023-05-10T03:25:06;17.50;75.40
70456;DHT22;57916;51.996;5.180;2023-05-10T03:27:36;17.50;75.40
70456;DHT22;57916;51.996;5.180;2023-05-10T03:30:07;17.50;75.40
70456;DHT22;57916;51.996;5.180;2023-05-10T03:32:35;17.40;75.30
70456;DHT22;57916;51.996;5.180;2023-05-10T03:35:09;17.50;75.40
70456;DHT22;57916;51.996;5.180;2023-05-10T03:37:37;17.50;75.50
70456;DHT22;57916;51.996;5.180;2023-05-10T03:40:05;17.50;75.50
70456;DHT22;57916;51.996;5.180;2023-05-10T03:42:35;17.40;75.50
70456;DHT22;57916;51.996;5.180;2023-05-10T03:45:02;17.50;75.50
70456;DHT22;57916;51.996;5.180;2023-05-10T03:47:29;17.50;75.50
70456;DHT22;57916;51.996;5.180;2023-05-10T03:49:57;17.50;75.50
70456;DHT22;57916;51.996;5.180;2023-05-10T03:52:24;17.50;75.40
70456;DHT22;57916;51.996;5.180;2023-05-10T03:54:51;17.50;75.30
70456;DHT22;57916;51.996;5.180;2023-05-10T03:57:19;17.50;75.20
70456;DHT22;57916;51.996;5.180;2023-05-10T03:59:45;17.50;75.20
70456;DHT22;57916;51.996;5.180;2023-05-10T04:02:12;17.60;75.30
70456;DHT22;57916;51.996;5.180;2023-05-10T04:04:39;17.60;75.30
70456;DHT22;57916;51.996;5.180;2023-05-10T04:07:06;17.60;75.20
70456;DHT22;57916;51.996;5.180;2023-05-10T04:09:33;17.60;75.20
70456;DHT22;57916;51.996;5.180;2023-05-10T04:12:00;17.70;75.20
70456;DHT22;57916;51.996;5.180;2023-05-10T04:14:28;17.70;75.10
70456;DHT22;57916;51.996;5.180;2023-05-10T04:16:55;17.70;75.00
70456;DHT22;57916;51.996;5.180;2023-05-10T04:19:23;17.70;75.00
70456;DHT22;57916;51.996;5.180;2023-05-10T04:21:50;17.80;74.90
70456;DHT22;57916;51.996;5.180;2023-05-10T04:24:17;17.80;75.00
70456;DHT22;57916;51.996;5.180;2023-05-10T04:26:44;17.80;74.80
70456;DHT22;57916;51.996;5.180;2023-05-10T04:29:10;17.80;74.80
70456;DHT22;57916;51.996;5.180;2023-05-10T04:31:37;17.80;74.80
70456;DHT22;57916;51.996;5.180;2023-05-10T04:34:05;17.80;74.80
70456;DHT22;57916;51.996;5.180;2023-05-10T04:36:32;17.80;74.80
70456;DHT22;57916;51.996;5.180;2023-05-10T04:39:00;17.80;75.60
70456;DHT22;57916;51.996;5.180;2023-05-10T04:41:27;17.80;74.60
70456;DHT22;57916;51.996;5.180;2023-05-10T04:43:54;17.80;74.80
70456;DHT22;57916;51.996;5.180;2023-05-10T04:46:21;17.80;74.80
70456;DHT22;57916;51.996;5.180;2023-05-10T04:48:48;17.70;75.10
70456;DHT22;57916;51.996;5.180;2023-05-10T04:51:15;17.80;75.20
70456;DHT22;57916;51.996;5.180;2023-05-10T04:53:42;17.80;75.10
70456;DHT22;57916;51.996;5.180;2023-05-10T04:56:23;17.80;75.00
70456;DHT22;57916;51.996;5.180;2023-05-10T04:58:50;17.80;75.00
70456;DHT22;57916;51.996;5.180;2023-05-10T05:01:17;17.80;75.10
70456;DHT22;57916;51.996;5.180;2023-05-10T05:03:44;17.80;75.20
70456;DHT22;57916;51.996;5.180;2023-05-10T05:06:11;17.80;75.30
70456;DHT22;57916;51.996;5.180;2023-05-10T05:08:38;17.80;75.30
70456;DHT22;57916;51.996;5.180;2023-05-10T05:11:05;17.80;75.20
70456;DHT22;57916;51.996;5.180;2023-05-10T05:13:31;17.80;75.10
70456;DHT22;57916;51.996;5.180;2023-05-10T05:16:01;17.80;75.20
70456;DHT22;57916;51.996;5.180;2023-05-10T05:18:28;17.80;75.20
70456;DHT22;57916;51.996;5.180;2023-05-10T05:20:55;17.80;75.20
70456;DHT22;57916;51.996;5.180;2023-05-10T05:23:22;17.80;75.10
70456;DHT22;57916;51.996;5.180;2023-05-10T05:25:52;17.70;75.20
70456;DHT22;57916;51.996;5.180;2023-05-10T05:28:20;17.70;75.30
70456;DHT22;57916;51.996;5.180;2023-05-10T05:30:47;17.70;75.30
70456;DHT22;57916;51.996;5.180;2023-05-10T05:33:14;17.70;75.20
70456;DHT22;57916;51.996;5.180;2023-05-10T05:35:42;17.70;75.20
70456;DHT22;57916;51.996;5.180;2023-05-10T05:38:14;17.70;75.40
70456;DHT22;57916;51.996;5.180;2023-05-10T05:40:41;17.70;75.50
70456;DHT22;57916;51.996;5.180;2023-05-10T05:43:08;17.70;75.50
70456;DHT22;57916;51.996;5.180;2023-05-10T05:45:34;17.70;75.50
70456;DHT22;57916;51.996;5.180;2023-05-10T05:48:01;17.70;75.50
70456;DHT22;57916;51.996;5.180;2023-05-10T05:50:28;17.70;75.50
70456;DHT22;57916;51.996;5.180;2023-05-10T05:52:55;17.70;75.40
70456;DHT22;57916;51.996;5.180;2023-05-10T05:55:23;17.70;75.40
70456;DHT22;57916;51.996;5.180;2023-05-10T05:57:52;17.70;75.40
70456;DHT22;57916;51.996;5.180;2023-05-10T06:00:20;17.70;75.40
70456;DHT22;57916;51.996;5.180;2023-05-10T06:02:47;17.80;75.30
70456;DHT22;57916;51.996;5.180;2023-05-10T06:05:14;17.80;75.00
70456;DHT22;57916;51.996;5.180;2023-05-10T06:07:42;17.80;74.90
70456;DHT22;57916;51.996;5.180;2023-05-10T06:10:09;17.80;75.00
70456;DHT22;57916;51.996;5.180;2023-05-10T06:12:36;17.80;74.80
70456;DHT22;57916;51.996;5.180;2023-05-10T06:15:03;17.80;74.50
70456;DHT22;57916;51.996;5.180;2023-05-10T06:17:30;17.80;74.50
70456;DHT22;57916;51.996;5.180;2023-05-10T06:19:57;17.80;74.40
70456;DHT22;57916;51.996;5.180;2023-05-10T06:22:24;17.80;74.20
70456;DHT22;57916;51.996;5.180;2023-05-10T06:24:52;17.70;74.30
70456;DHT22;57916;51.996;5.180;2023-05-10T06:27:18;17.80;74.40
70456;DHT22;57916;51.996;5.180;2023-05-10T06:29:45;17.80;74.50
70456;DHT22;57916;51.996;5.180;2023-05-10T06:32:12;17.80;74.60
70456;DHT22;57916;51.996;5.180;2023-05-10T06:34:39;17.80;75.10
70456;DHT22;57916;51.996;5.180;2023-05-10T06:37:06;17.90;74.60
70456;DHT22;57916;51.996;5.180;2023-05-10T06:39:33;17.90;74.50
70456;DHT22;57916;51.996;5.180;2023-05-10T06:42:00;17.90;74.40
70456;DHT22;57916;51.996;5.180;2023-05-10T06:44:31;17.90;74.50
70456;DHT22;57916;51.996;5.180;2023-05-10T06:46:58;17.90;73.90
70456;DHT22;57916;51.996;5.180;2023-05-10T06:49:25;18.00;73.80
70456;DHT22;57916;51.996;5.180;2023-05-10T06:51:52;18.00;73.60
70456;DHT22;57916;51.996;5.180;2023-05-10T06:54:19;18.00;73.50
70456;DHT22;57916;51.996;5.180;2023-05-10T06:56:47;18.00;73.80
70456;DHT22;57916;51.996;5.180;2023-05-10T06:59:13;18.00;73.90
70456;DHT22;57916;51.996;5.180;2023-05-10T07:01:42;18.00;73.80
70456;DHT22;57916;51.996;5.180;2023-05-10T07:04:09;18.00;73.70
70456;DHT22;57916;51.996;5.180;2023-05-10T07:06:36;18.00;73.60
70456;DHT22;57916;51.996;5.180;2023-05-10T07:09:03;18.10;73.50
70456;DHT22;57916;51.996;5.180;2023-05-10T07:11:30;18.10;73.20
70456;DHT22;57916;51.996;5.180;2023-05-10T07:13:57;18.10;72.70
70456;DHT22;57916;51.996;5.180;2023-05-10T07:16:24;18.10;72.60
70456;DHT22;57916;51.996;5.180;2023-05-10T07:18:51;18.10;72.80
70456;DHT22;57916;51.996;5.180;2023-05-10T07:21:19;18.10;72.80
70456;DHT22;57916;51.996;5.180;2023-05-10T07:23:46;18.10;73.40
70456;DHT22;57916;51.996;5.180;2023-05-10T07:26:13;18.10;73.10
70456;DHT22;57916;51.996;5.180;2023-05-10T07:28:41;18.20;72.70
70456;DHT22;57916;51.996;5.180;2023-05-10T07:31:08;18.20;72.20
70456;DHT22;57916;51.996;5.180;2023-05-10T07:33:35;18.30;72.50
70456;DHT22;57916;51.996;5.180;2023-05-10T07:36:02;18.40;72.40
70456;DHT22;57916;51.996;5.180;2023-05-10T07:38:29;18.50;70.90
70456;DHT22;57916;51.996;5.180;2023-05-10T07:40:56;18.40;71.40
70456;DHT22;57916;51.996;5.180;2023-05-10T07:43:23;18.40;70.20
70456;DHT22;57916;51.996;5.180;2023-05-10T07:45:50;18.40;70.20
70456;DHT22;57916;51.996;5.180;2023-05-10T07:48:21;18.40;70.50
70456;DHT22;57916;51.996;5.180;2023-05-10T07:50:47;18.40;70.90
70456;DHT22;57916;51.996;5.180;2023-05-10T07:53:14;18.30;70.50
70456;DHT22;57916;51.996;5.180;2023-05-10T07:55:41;18.30;70.80
70456;DHT22;57916;51.996;5.180;2023-05-10T07:58:08;18.30;71.60
70456;DHT22;57916;51.996;5.180;2023-05-10T08:00:35;18.40;72.20
70456;DHT22;57916;51.996;5.180;2023-05-10T08:03:02;18.40;71.80
70456;DHT22;57916;51.996;5.180;2023-05-10T08:05:29;18.40;71.00
70456;DHT22;57916;51.996;5.180;2023-05-10T08:07:56;18.50;71.40
70456;DHT22;57916;51.996;5.180;2023-05-10T08:10:24;18.50;71.00
70456;DHT22;57916;51.996;5.180;2023-05-10T08:12:51;18.50;70.40
70456;DHT22;57916;51.996;5.180;2023-05-10T08:15:18;18.50;70.60
70456;DHT22;57916;51.996;5.180;2023-05-10T08:17:45;18.60;70.40
70456;DHT22;57916;51.996;5.180;2023-05-10T08:20:12;18.60;70.70
70456;DHT22;57916;51.996;5.180;2023-05-10T08:22:40;18.60;70.70
70456;DHT22;57916;51.996;5.180;2023-05-10T08:25:07;18.60;70.20
70456;DHT22;57916;51.996;5.180;2023-05-10T08:27:34;18.60;70.90
70456;DHT22;57916;51.996;5.180;2023-05-10T08:30:01;18.60;71.40
70456;DHT22;57916;51.996;5.180;2023-05-10T08:32:28;18.70;72.00
70456;DHT22;57916;51.996;5.180;2023-05-10T08:34:55;18.80;70.90
70456;DHT22;57916;51.996;5.180;2023-05-10T08:37:23;18.80;71.00
70456;DHT22;57916;51.996;5.180;2023-05-10T08:39:50;18.90;70.30
70456;DHT22;57916;51.996;5.180;2023-05-10T08:42:19;18.90;69.30
70456;DHT22;57916;51.996;5.180;2023-05-10T08:44:48;18.90;68.80
70456;DHT22;57916;51.996;5.180;2023-05-10T08:47:18;18.90;69.40
70456;DHT22;57916;51.996;5.180;2023-05-10T08:49:47;18.90;68.90
70456;DHT22;57916;51.996;5.180;2023-05-10T08:52:18;18.90;69.20
70456;DHT22;57916;51.996;5.180;2023-05-10T08:54:45;18.90;69.30
70456;DHT22;57916;51.996;5.180;2023-05-10T08:57:12;18.90;69.90
70456;DHT22;57916;51.996;5.180;2023-05-10T08:59:39;18.90;69.50
70456;DHT22;57916;51.996;5.180;2023-05-10T09:02:09;18.90;69.80
70456;DHT22;57916;51.996;5.180;2023-05-10T09:04:37;18.90;70.40
70456;DHT22;57916;51.996;5.180;2023-05-10T09:07:04;19.00;70.20
70456;DHT22;57916;51.996;5.180;2023-05-10T09:09:31;19.00;69.90
70456;DHT22;57916;51.996;5.180;2023-05-10T09:11:58;19.10;70.50
70456;DHT22;57916;51.996;5.180;2023-05-10T09:14:25;19.10;70.00
70456;DHT22;57916;51.996;5.180;2023-05-10T09:16:54;19.10;70.40
70456;DHT22;57916;51.996;5.180;2023-05-10T09:19:21;19.20;69.00
70456;DHT22;57916;51.996;5.180;2023-05-10T09:21:49;19.10;69.20
70456;DHT22;57916;51.996;5.180;2023-05-10T09:24:16;19.20;69.40
70456;DHT22;57916;51.996;5.180;2023-05-10T09:26:47;19.20;68.30
70456;DHT22;57916;51.996;5.180;2023-05-10T09:29:18;19.20;67.90
70456;DHT22;57916;51.996;5.180;2023-05-10T09:31:52;19.20;67.80
70456;DHT22;57916;51.996;5.180;2023-05-10T09:34:32;19.20;67.50
70456;DHT22;57916;51.996;5.180;2023-05-10T09:37:00;19.10;67.60
70456;DHT22;57916;51.996;5.180;2023-05-10T09:39:36;19.10;68.00
70456;DHT22;57916;51.996;5.180;2023-05-10T09:42:05;19.10;69.40
70456;DHT22;57916;51.996;5.180;2023-05-10T09:44:33;19.20;69.80
70456;DHT22;57916;51.996;5.180;2023-05-10T09:47:01;19.20;69.40
70456;DHT22;57916;51.996;5.180;2023-05-10T09:49:29;19.30;69.20
70456;DHT22;57916;51.996;5.180;2023-05-10T09:52:07;19.30;69.00
70456;DHT22;57916;51.996;5.180;2023-05-10T09:54:34;19.30;67.70
70456;DHT22;57916;51.996;5.180;2023-05-10T09:57:01;19.30;66.80
70456;DHT22;57916;51.996;5.180;2023-05-10T09:59:29;19.30;67.30
70456;DHT22;57916;51.996;5.180;2023-05-10T10:01:58;19.40;67.50
70456;DHT22;57916;51.996;5.180;2023-05-10T10:04:52;19.40;68.00
70456;DHT22;57916;51.996;5.180;2023-05-10T10:07:33;19.30;67.90
70456;DHT22;57916;51.996;5.180;2023-05-10T10:10:28;19.30;67.70
70456;DHT22;57916;51.996;5.180;2023-05-10T10:13:02;19.30;67.30
70456;DHT22;57916;51.996;5.180;2023-05-10T10:15:49;19.20;67.10
70456;DHT22;57916;51.996;5.180;2023-05-10T10:18:20;19.20;67.60
70456;DHT22;57916;51.996;5.180;2023-05-10T10:20:54;19.30;68.50
70456;DHT22;57916;51.996;5.180;2023-05-10T10:23:22;19.30;68.70
70456;DHT22;57916;51.996;5.180;2023-05-10T10:25:50;19.30;67.70
70456;DHT22;57916;51.996;5.180;2023-05-10T10:28:36;19.40;67.70
70456;DHT22;57916;51.996;5.180;2023-05-10T10:31:31;19.50;66.60
70456;DHT22;57916;51.996;5.180;2023-05-10T10:34:25;19.50;67.40
70456;DHT22;57916;51.996;5.180;2023-05-10T10:36:54;19.60;67.40
70456;DHT22;57916;51.996;5.180;2023-05-10T10:39:21;19.60;67.00
70456;DHT22;57916;51.996;5.180;2023-05-10T10:41:56;19.60;68.20
70456;DHT22;57916;51.996;5.180;2023-05-10T10:47:04;19.90;69.80
70456;DHT22;57916;51.996;5.180;2023-05-10T10:49:37;20.10;68.60
70456;DHT22;57916;51.996;5.180;2023-05-10T10:54:59;20.50;67.60
70456;DHT22;57916;51.996;5.180;2023-05-10T10:57:28;20.70;66.30
70456;DHT22;57916;51.996;5.180;2023-05-10T11:00:19;20.80;65.50
70456;DHT22;57916;51.996;5.180;2023-05-10T11:02:48;20.80;63.40
70456;DHT22;57916;51.996;5.180;2023-05-10T11:05:33;20.80;63.70
70456;DHT22;57916;51.996;5.180;2023-05-10T11:13:38;20.90;64.20
70456;DHT22;57916;51.996;5.180;2023-05-10T11:19:07;20.90;63.60
70456;DHT22;57916;51.996;5.180;2023-05-10T11:21:48;20.90;65.50
70456;DHT22;57916;51.996;5.180;2023-05-10T11:24:22;20.90;65.80
70456;DHT22;57916;51.996;5.180;2023-05-10T11:26:53;21.00;64.50
70456;DHT22;57916;51.996;5.180;2023-05-10T11:29:20;21.00;65.00
70456;DHT22;57916;51.996;5.180;2023-05-10T11:31:48;21.10;64.00
70456;DHT22;57916;51.996;5.180;2023-05-10T11:34:30;21.10;64.50
70456;DHT22;57916;51.996;5.180;2023-05-10T11:36:58;21.20;64.40
70456;DHT22;57916;51.996;5.180;2023-05-10T11:39:32;21.30;63.70
70456;DHT22;57916;51.996;5.180;2023-05-10T11:42:00;21.40;63.30
70456;DHT22;57916;51.996;5.180;2023-05-10T11:44:34;21.40;63.70
70456;DHT22;57916;51.996;5.180;2023-05-10T11:47:01;21.40;63.50
70456;DHT22;57916;51.996;5.180;2023-05-10T11:49:29;21.40;64.00
70456;DHT22;57916;51.996;5.180;2023-05-10T11:52:08;21.40;65.00
70456;DHT22;57916;51.996;5.180;2023-05-10T11:54:35;21.40;63.30
70456;DHT22;57916;51.996;5.180;2023-05-10T11:57:03;21.40;62.70
70456;DHT22;57916;51.996;5.180;2023-05-10T11:59:30;21.30;62.80
70456;DHT22;57916;51.996;5.180;2023-05-10T12:01:57;21.20;63.30
70456;DHT22;57916;51.996;5.180;2023-05-10T12:04:24;21.20;63.30
70456;DHT22;57916;51.996;5.180;2023-05-10T12:06:52;21.10;63.60
70456;DHT22;57916;51.996;5.180;2023-05-10T12:09:19;21.00;64.10
70456;DHT22;57916;51.996;5.180;2023-05-10T12:12:02;20.90;64.70
70456;DHT22;57916;51.996;5.180;2023-05-10T12:14:29;20.80;64.90
70456;DHT22;57916;51.996;5.180;2023-05-10T12:17:00;20.70;64.70
70456;DHT22;57916;51.996;5.180;2023-05-10T12:19:27;20.60;64.60
70456;DHT22;57916;51.996;5.180;2023-05-10T12:21:54;20.50;64.70
70456;DHT22;57916;51.996;5.180;2023-05-10T12:24:21;20.40;65.20
70456;DHT22;57916;51.996;5.180;2023-05-10T12:26:48;20.30;65.80
70456;DHT22;57916;51.996;5.180;2023-05-10T12:29:33;20.30;66.60
70456;DHT22;57916;51.996;5.180;2023-05-10T12:32:00;20.10;67.40
70456;DHT22;57916;51.996;5.180;2023-05-10T12:34:30;20.10;68.30
70456;DHT22;57916;51.996;5.180;2023-05-10T12:36:58;20.10;68.90
70456;DHT22;57916;51.996;5.180;2023-05-10T12:39:25;20.10;69.50
70456;DHT22;57916;51.996;5.180;2023-05-10T12:41:52;20.10;69.10
70456;DHT22;57916;51.996;5.180;2023-05-10T12:44:19;20.10;69.70
70456;DHT22;57916;51.996;5.180;2023-05-10T12:46:46;20.20;69.80
70456;DHT22;57916;51.996;5.180;2023-05-10T12:49:14;20.10;69.20
70456;DHT22;57916;51.996;5.180;2023-05-10T12:51:41;20.10;69.20
70456;DHT22;57916;51.996;5.180;2023-05-10T12:54:08;20.10;69.90
70456;DHT22;57916;51.996;5.180;2023-05-10T12:56:35;20.20;70.20
70456;DHT22;57916;51.996;5.180;2023-05-10T12:59:02;20.20;69.40
70456;DHT22;57916;51.996;5.180;2023-05-10T13:01:28;20.20;68.90
70456;DHT22;57916;51.996;5.180;2023-05-10T13:03:56;20.20;68.30
70456;DHT22;57916;51.996;5.180;2023-05-10T13:06:23;20.20;69.00
70456;DHT22;57916;51.996;5.180;2023-05-10T13:08:49;20.30;69.30
70456;DHT22;57916;51.996;5.180;2023-05-10T13:11:17;20.30;69.30
70456;DHT22;57916;51.996;5.180;2023-05-10T13:13:43;20.40;67.60
70456;DHT22;57916;51.996;5.180;2023-05-10T13:16:11;20.40;67.20
70456;DHT22;57916;51.996;5.180;2023-05-10T13:18:38;20.30;67.20
70456;DHT22;57916;51.996;5.180;2023-05-10T13:21:05;20.30;68.30
70456;DHT22;57916;51.996;5.180;2023-05-10T13:23:32;20.30;66.90
70456;DHT22;57916;51.996;5.180;2023-05-10T13:25:59;20.20;66.40
70456;DHT22;57916;51.996;5.180;2023-05-10T13:28:26;20.20;67.70
70456;DHT22;57916;51.996;5.180;2023-05-10T13:30:53;20.20;67.60
70456;DHT22;57916;51.996;5.180;2023-05-10T13:33:20;20.20;67.50
70456;DHT22;57916;51.996;5.180;2023-05-10T13:35:47;20.20;67.20
70456;DHT22;57916;51.996;5.180;2023-05-10T13:38:14;20.10;67.20
70456;DHT22;57916;51.996;5.180;2023-05-10T13:40:41;20.10;67.00
70456;DHT22;57916;51.996;5.180;2023-05-10T13:43:08;20.10;66.90
70456;DHT22;57916;51.996;5.180;2023-05-10T13:45:35;20.10;66.70
70456;DHT22;57916;51.996;5.180;2023-05-10T13:48:02;20.00;67.10
70456;DHT22;57916;51.996;5.180;2023-05-10T13:50:30;20.00;66.60
70456;DHT22;57916;51.996;5.180;2023-05-10T13:52:56;20.00;67.40
70456;DHT22;57916;51.996;5.180;2023-05-10T13:55:24;20.00;68.80
70456;DHT22;57916;51.996;5.180;2023-05-10T13:57:51;20.00;68.20
70456;DHT22;57916;51.996;5.180;2023-05-10T14:00:18;20.10;68.40
70456;DHT22;57916;51.996;5.180;2023-05-10T14:02:45;20.10;68.20
70456;DHT22;57916;51.996;5.180;2023-05-10T14:05:12;20.10;68.00
70456;DHT22;57916;51.996;5.180;2023-05-10T14:07:39;20.10;68.00
70456;DHT22;57916;51.996;5.180;2023-05-10T14:10:06;20.10;67.50
70456;DHT22;57916;51.996;5.180;2023-05-10T14:12:33;20.10;67.90
70456;DHT22;57916;51.996;5.180;2023-05-10T14:15:00;20.10;67.90
70456;DHT22;57916;51.996;5.180;2023-05-10T14:17:28;20.20;68.20
70456;DHT22;57916;51.996;5.180;2023-05-10T14:19:55;20.20;67.70
70456;DHT22;57916;51.996;5.180;2023-05-10T14:22:22;20.30;68.10
70456;DHT22;57916;51.996;5.180;2023-05-10T14:24:49;20.30;68.40
70456;DHT22;57916;51.996;5.180;2023-05-10T14:27:16;20.30;67.90
70456;DHT22;57916;51.996;5.180;2023-05-10T14:29:43;20.30;67.70
70456;DHT22;57916;51.996;5.180;2023-05-10T14:32:10;20.40;68.70
70456;DHT22;57916;51.996;5.180;2023-05-10T14:34:37;20.40;68.30
70456;DHT22;57916;51.996;5.180;2023-05-10T14:37:04;20.40;69.00
70456;DHT22;57916;51.996;5.180;2023-05-10T14:39:31;20.50;69.00
70456;DHT22;57916;51.996;5.180;2023-05-10T14:41:59;20.50;68.50
70456;DHT22;57916;51.996;5.180;2023-05-10T14:44:26;20.50;68.10
70456;DHT22;57916;51.996;5.180;2023-05-10T14:46:54;20.50;68.50
70456;DHT22;57916;51.996;5.180;2023-05-10T14:49:22;20.60;68.40
70456;DHT22;57916;51.996;5.180;2023-05-10T14:51:51;20.60;68.20
70456;DHT22;57916;51.996;5.180;2023-05-10T14:54:18;20.60;68.30
70456;DHT22;57916;51.996;5.180;2023-05-10T14:56:45;20.60;68.20
70456;DHT22;57916;51.996;5.180;2023-05-10T14:59:12;20.60;68.80
70456;DHT22;57916;51.996;5.180;2023-05-10T15:01:39;20.60;69.30
70456;DHT22;57916;51.996;5.180;2023-05-10T15:04:09;20.70;69.00
70456;DHT22;57916;51.996;5.180;2023-05-10T15:06:36;20.70;68.50
70456;DHT22;57916;51.996;5.180;2023-05-10T15:09:03;20.70;68.50
70456;DHT22;57916;51.996;5.180;2023-05-10T15:11:30;20.70;67.30
70456;DHT22;57916;51.996;5.180;2023-05-10T15:13:57;20.70;67.50
70456;DHT22;57916;51.996;5.180;2023-05-10T15:16:24;20.70;67.90
70456;DHT22;57916;51.996;5.180;2023-05-10T15:18:51;20.70;67.10
70456;DHT22;57916;51.996;5.180;2023-05-10T15:21:18;20.70;67.00
70456;DHT22;57916;51.996;5.180;2023-05-10T15:23:46;20.80;67.50
70456;DHT22;57916;51.996;5.180;2023-05-10T15:26:13;20.80;68.90
70456;DHT22;57916;51.996;5.180;2023-05-10T15:28:40;20.80;68.30
70456;DHT22;57916;51.996;5.180;2023-05-10T15:31:07;20.90;67.90
70456;DHT22;57916;51.996;5.180;2023-05-10T15:33:34;20.90;67.30
70456;DHT22;57916;51.996;5.180;2023-05-10T15:36:01;20.90;66.60
70456;DHT22;57916;51.996;5.180;2023-05-10T15:38:28;20.90;66.10
70456;DHT22;57916;51.996;5.180;2023-05-10T15:40:56;20.90;65.70
70456;DHT22;57916;51.996;5.180;2023-05-10T15:43:24;20.80;65.40
70456;DHT22;57916;51.996;5.180;2023-05-10T15:45:51;20.80;66.00
70456;DHT22;57916;51.996;5.180;2023-05-10T15:48:18;20.80;66.20
70456;DHT22;57916;51.996;5.180;2023-05-10T15:50:45;20.80;67.10
70456;DHT22;57916;51.996;5.180;2023-05-10T15:53:12;20.90;66.50
70456;DHT22;57916;51.996;5.180;2023-05-10T15:55:39;20.90;66.90
70456;DHT22;57916;51.996;5.180;2023-05-10T15:58:06;20.90;66.90
70456;DHT22;57916;51.996;5.180;2023-05-10T16:00:33;21.00;66.60
70456;DHT22;57916;51.996;5.180;2023-05-10T16:03:00;21.00;66.90
70456;DHT22;57916;51.996;5.180;2023-05-10T16:05:27;21.10;67.30
70456;DHT22;57916;51.996;5.180;2023-05-10T16:07:59;21.10;66.10
70456;DHT22;57916;51.996;5.180;2023-05-10T16:10:26;21.10;65.60